createdAt,value
2018-07-25T00:02:22.777Z,23.44
2018-07-25T00:04:55.277Z,23.41
2018-07-25T00:07:29.490Z,23.44
2018-07-25T00:10:02.847Z,23.50
2018-07-25T00:12:35.356Z,23.58
2018-07-25T00:15:08.027Z,23.46
2018-07-25T00:17:40.657Z,23.46
2018-07-25T00:20:14.459Z,23.28
2018-07-25T00:22:48.183Z,23.77
2018-07-25T00:25:20.871Z,23.61
2018-07-25T00:27:54.264Z,24.10
2018-07-25T00:30:29.038Z,24.23
2018-07-25T00:36:10.706Z,23.93
2018-07-25T00:38:40.735Z,23.91
2018-07-25T00:43:46.181Z,23.65
2018-07-25T00:49:13.576Z,24.01
2018-07-25T00:51:44.818Z,23.92
2018-07-25T00:54:14.776Z,23.66
2018-07-25T00:56:46.152Z,23.65
2018-07-25T00:59:17.397Z,23.88
2018-07-25T01:01:49.233Z,24.22
2018-07-25T01:04:20.900Z,24.23
2018-07-25T01:06:52.351Z,24.37
2018-07-25T01:09:23.544Z,24.13
2018-07-25T01:11:55.093Z,23.64
2018-07-25T01:14:26.023Z,23.22
2018-07-25T01:16:57.058Z,23.10
2018-07-25T01:19:27.867Z,22.79
2018-07-25T01:21:58.359Z,22.90
2018-07-25T01:24:29.444Z,22.99
2018-07-25T01:27:00.124Z,23.18
2018-07-25T01:29:31.558Z,22.80
2018-07-25T01:32:14.667Z,22.98
2018-07-25T01:34:59.740Z,22.82
2018-07-25T01:37:36.703Z,22.89
2018-07-25T01:40:21.393Z,22.95
2018-07-25T01:43:03.479Z,22.91
2018-07-25T01:45:40.699Z,22.92
2018-07-25T01:48:51.691Z,22.71
2018-07-25T01:51:36.554Z,22.29
2018-07-25T01:54:12.645Z,22.43
2018-07-25T01:56:50.991Z,22.87
2018-07-25T01:59:32.696Z,22.98
2018-07-25T02:05:02.075Z,22.92
2018-07-25T02:07:46.171Z,23.00
2018-07-25T02:10:24.179Z,22.96
2018-07-25T02:13:06.696Z,22.98
2018-07-25T02:15:46.447Z,23.16
2018-07-25T02:18:29.649Z,23.13
2018-07-25T02:21:15.664Z,22.90
2018-07-25T02:23:57.633Z,22.92
2018-07-25T02:26:35.492Z,22.99
2018-07-25T02:29:12.192Z,23.01
2018-07-25T02:31:50.305Z,22.97
2018-07-25T02:34:30.010Z,23.00
2018-07-25T02:37:13.977Z,22.79
2018-07-25T02:39:48.182Z,22.50
2018-07-25T02:42:32.107Z,22.58
2018-07-25T02:45:09.958Z,23.03
2018-07-25T02:47:48.509Z,23.08
2018-07-25T02:50:30.113Z,23.28
2018-07-25T02:53:12.322Z,23.09
2018-07-25T02:55:47.040Z,22.86
2018-07-25T03:01:15.011Z,22.92
2018-07-25T03:03:57.612Z,23.11
2018-07-25T03:06:35.129Z,22.97
2018-07-25T03:09:18.529Z,22.94
2018-07-25T03:11:57.349Z,22.98
2018-07-25T03:14:37.913Z,23.02
2018-07-25T03:17:19.027Z,22.92
2018-07-25T03:19:54.859Z,23.01
2018-07-25T03:22:29.808Z,22.91
2018-07-25T03:25:16.431Z,22.82
2018-07-25T03:33:22.715Z,23.17
2018-07-25T03:36:06.369Z,23.40
2018-07-25T03:41:29.465Z,23.38
2018-07-25T03:44:12.812Z,23.51
2018-07-25T03:46:52.993Z,23.44
2018-07-25T03:49:39.739Z,23.43
2018-07-25T03:52:18.630Z,23.55
2018-07-25T03:54:53.920Z,23.38
2018-07-25T03:57:28.128Z,23.46
2018-07-25T04:00:07.919Z,23.43
2018-07-25T04:02:50.665Z,23.41
2018-07-25T04:05:30.254Z,23.73
2018-07-25T04:08:17.031Z,24.54
2018-07-25T04:11:04.781Z,24.91
2018-07-25T04:13:52.998Z,25.04
2018-07-25T04:19:41.778Z,24.66
2018-07-25T04:22:41.874Z,24.67
2018-07-25T04:25:33.889Z,24.51
2018-07-25T04:28:24.047Z,24.21
2018-07-25T04:31:22.836Z,24.16
2018-07-25T04:34:15.834Z,24.16
2018-07-25T04:40:15.604Z,24.45
2018-07-25T04:46:08.038Z,24.45
2018-07-25T04:49:11.593Z,24.11
2018-07-25T04:52:16.168Z,24.00
2018-07-25T04:55:02.796Z,24.16
2018-07-25T05:00:54.937Z,24.55
2018-07-25T05:06:40.852Z,24.92
2018-07-25T05:09:32.810Z,25.02
2018-07-25T05:12:26.700Z,24.97
2018-07-25T05:15:18.506Z,25.23
2018-07-25T05:18:11.072Z,25.58
2018-07-25T05:23:59.847Z,25.34
2018-07-25T05:33:00.296Z,26.54
2018-07-25T05:35:51.966Z,26.78
2018-07-25T05:41:34.983Z,26.77
2018-07-25T05:44:25.180Z,26.75
2018-07-25T05:47:24.885Z,26.82
2018-07-25T05:56:08.421Z,27.31
2018-07-25T06:02:02.381Z,27.72
2018-07-25T06:07:59.133Z,27.86
2018-07-25T06:16:41.288Z,28.68
2018-07-25T06:19:35.994Z,28.84
2018-07-25T06:39:54.534Z,28.98
2018-07-25T06:48:42.017Z,29.11
2018-07-25T06:57:25.288Z,29.47
2018-07-25T07:00:23.829Z,29.91
2018-07-25T07:03:14.392Z,29.95
2018-07-25T07:26:41.470Z,31.07
2018-07-25T07:29:32.804Z,30.98
2018-07-25T07:32:24.015Z,31.23
2018-07-25T07:35:18.583Z,31.47
2018-07-25T07:38:09.743Z,31.73
2018-07-25T07:49:57.025Z,32.07
2018-07-25T07:52:50.102Z,32.16
2018-07-25T07:58:47.132Z,32.05
2018-07-25T08:07:40.849Z,32.67
2018-07-25T08:16:33.792Z,32.97
2018-07-25T08:22:23.157Z,33.12
2018-07-25T08:25:14.544Z,33.29
2018-07-25T08:36:54.966Z,33.71
2018-07-25T08:39:53.509Z,33.80
2018-07-25T08:48:47.026Z,34.13
2018-07-25T08:54:35.469Z,33.53
2018-07-25T09:03:17.826Z,34.06
2018-07-25T09:12:07.416Z,33.87
2018-07-25T09:20:55.833Z,34.17
2018-07-25T09:23:50.222Z,34.51
2018-07-25T09:35:42.048Z,34.43
2018-07-25T09:38:42.529Z,33.85
2018-07-25T09:41:39.994Z,33.38
2018-07-25T09:50:25.854Z,32.73
2018-07-25T09:59:17.852Z,32.31
2018-07-25T10:05:18.562Z,32.05
2018-07-25T10:08:15.884Z,32.46
2018-07-25T10:17:10.726Z,32.93
2018-07-25T10:28:49.917Z,33.93
2018-07-25T10:37:35.609Z,34.07
2018-07-25T10:40:28.125Z,34.11
2018-07-25T10:46:19.408Z,34.82
2018-07-25T10:49:13.980Z,34.20
2018-07-25T10:54:58.345Z,34.12
2018-07-25T10:57:46.396Z,33.85
2018-07-25T11:06:24.330Z,34.38
2018-07-25T11:09:19.070Z,34.11
2018-07-25T11:12:09.000Z,34.14
2018-07-25T11:23:51.275Z,33.55
2018-07-25T11:26:44.303Z,33.82
2018-07-25T11:32:36.233Z,34.97
2018-07-25T11:35:33.834Z,35.59
2018-07-25T11:38:17.905Z,34.93
2018-07-25T11:41:16.606Z,35.36
2018-07-25T11:43:57.757Z,34.95
2018-07-25T11:46:43.781Z,35.42
2018-07-25T11:49:20.013Z,35.33
2018-07-25T11:51:53.517Z,34.69
2018-07-25T11:54:30.077Z,34.29
2018-07-25T11:59:51.930Z,33.77
2018-07-25T12:05:11.802Z,33.96
2018-07-25T12:07:44.694Z,34.59
2018-07-25T12:10:24.814Z,34.86
2018-07-25T12:12:58.174Z,35.53
2018-07-25T12:18:18.031Z,36.53
2018-07-25T12:20:55.376Z,36.49
2018-07-25T12:23:36.701Z,36.26
2018-07-25T12:28:51.801Z,35.48
2018-07-25T12:31:31.799Z,35.00
2018-07-25T12:34:16.042Z,34.35
2018-07-25T12:36:59.358Z,34.66
2018-07-25T12:39:35.342Z,34.31
2018-07-25T12:42:12.633Z,34.55
2018-07-25T12:44:51.039Z,34.89
2018-07-25T12:50:18.477Z,35.42
2018-07-25T12:52:58.409Z,35.59
2018-07-25T12:55:43.089Z,35.53
2018-07-25T12:58:26.944Z,35.69
2018-07-25T13:01:04.340Z,35.14
2018-07-25T13:03:50.925Z,34.93
2018-07-25T13:06:29.672Z,35.06
2018-07-25T13:09:07.974Z,35.05
2018-07-25T13:11:44.863Z,34.81
2018-07-25T13:14:33.306Z,34.34
2018-07-25T13:17:14.429Z,34.79
2018-07-25T13:22:36.902Z,35.33
2018-07-25T13:25:29.256Z,35.45
2018-07-25T13:30:50.299Z,35.18
2018-07-25T13:36:11.613Z,35.70
2018-07-25T13:38:52.423Z,35.35
2018-07-25T13:41:39.404Z,34.99
2018-07-25T13:44:22.747Z,34.61
2018-07-25T13:47:10.527Z,34.64
2018-07-25T13:49:47.922Z,34.54
2018-07-25T13:52:31.844Z,35.33
2018-07-25T13:55:08.234Z,35.74
2018-07-25T14:00:35.631Z,36.12
2018-07-25T14:03:23.830Z,35.34
2018-07-25T14:06:09.902Z,34.44
2018-07-25T14:08:53.319Z,34.12
2018-07-25T14:11:33.632Z,33.97
2018-07-25T14:14:29.061Z,34.29
2018-07-25T14:17:10.619Z,34.56
2018-07-25T14:19:48.858Z,35.00
2018-07-25T14:22:38.523Z,34.73
2018-07-25T14:25:19.123Z,34.82
2018-07-25T14:27:58.151Z,34.75
2018-07-25T14:30:37.219Z,34.98
2018-07-25T14:36:00.257Z,34.65
2018-07-25T14:38:38.432Z,33.98
2018-07-25T14:41:20.246Z,33.36
2018-07-25T14:43:58.809Z,33.17
2018-07-25T14:46:40.878Z,33.43
2018-07-25T14:49:19.182Z,33.75
2018-07-25T14:54:38.708Z,33.72
2018-07-25T14:57:14.106Z,33.95
2018-07-25T14:59:53.998Z,33.98
2018-07-25T15:02:33.487Z,33.34
2018-07-25T15:07:54.861Z,33.40
2018-07-25T15:10:41.112Z,33.93
2018-07-25T15:13:14.694Z,34.93
2018-07-25T15:15:49.850Z,35.35
2018-07-25T15:18:25.356Z,35.04
2018-07-25T15:21:04.372Z,35.26
2018-07-25T15:23:57.628Z,35.61
2018-07-25T15:29:30.842Z,35.43
2018-07-25T15:32:14.637Z,35.40
2018-07-25T15:34:55.102Z,35.40
2018-07-25T15:37:29.868Z,35.76
2018-07-25T15:42:53.037Z,34.98
2018-07-25T15:51:17.090Z,34.89
2018-07-25T15:53:59.380Z,34.24
2018-07-25T15:56:37.000Z,34.20
2018-07-25T15:59:23.276Z,34.74
2018-07-25T16:02:03.361Z,34.54
2018-07-25T16:04:38.845Z,34.39
2018-07-25T16:07:23.055Z,33.91
2018-07-25T16:10:12.339Z,33.58
2018-07-25T16:12:51.623Z,34.09
2018-07-25T16:15:41.700Z,34.16
2018-07-25T16:18:16.393Z,33.85
2018-07-25T16:20:58.318Z,34.27
2018-07-25T16:23:32.923Z,34.59
2018-07-25T16:26:11.757Z,34.02
2018-07-25T16:28:50.065Z,34.02
2018-07-25T16:31:28.361Z,34.45
2018-07-25T16:34:03.638Z,34.70
2018-07-25T16:36:41.165Z,34.88
2018-07-25T16:39:18.173Z,34.92
2018-07-25T16:41:51.473Z,34.99
2018-07-25T16:44:27.733Z,34.86
2018-07-25T16:49:59.473Z,34.40
2018-07-25T16:52:36.517Z,34.33
2018-07-25T16:55:15.581Z,34.12
2018-07-25T16:58:08.403Z,33.92
2018-07-25T17:00:48.278Z,33.70
2018-07-25T17:03:37.275Z,33.55
2018-07-25T17:09:09.722Z,33.05
2018-07-25T17:12:04.075Z,33.06
2018-07-25T17:14:46.113Z,32.88
2018-07-25T17:17:30.574Z,32.67
2018-07-25T17:20:16.608Z,32.63
2018-07-25T17:22:54.948Z,32.51
2018-07-25T17:34:17.309Z,32.34
2018-07-25T17:37:01.507Z,32.51
2018-07-25T17:39:47.845Z,32.54
2018-07-25T17:42:28.076Z,32.49
2018-07-25T17:45:13.910Z,32.41
2018-07-25T17:47:55.539Z,32.14
2018-07-25T17:58:47.989Z,31.58
2018-07-25T18:04:13.708Z,31.46
2018-07-25T18:06:57.535Z,31.32
2018-07-25T18:09:33.045Z,31.22
2018-07-25T18:12:06.870Z,31.08
2018-07-25T18:14:40.230Z,30.99
2018-07-25T18:17:16.565Z,30.87
2018-07-25T18:19:51.787Z,30.82
2018-07-25T18:22:24.457Z,30.67
2018-07-25T18:25:01.025Z,30.57
2018-07-25T18:27:34.586Z,30.51
2018-07-25T18:30:08.059Z,30.41
2018-07-25T18:32:40.583Z,30.30
2018-07-25T18:35:12.887Z,30.08
2018-07-25T18:37:46.122Z,30.10
2018-07-25T18:40:19.815Z,30.04
2018-07-25T18:42:52.880Z,29.97
2018-07-25T18:45:27.089Z,29.82
2018-07-25T18:48:00.061Z,29.77
2018-07-25T18:50:33.736Z,29.81
2018-07-25T18:53:10.690Z,29.80
2018-07-25T18:55:45.314Z,29.68
2018-07-25T18:58:18.319Z,29.47
2018-07-25T19:00:52.814Z,29.33
2018-07-25T19:03:30.904Z,29.31
2018-07-25T19:06:05.664Z,29.16
2018-07-25T19:08:38.698Z,28.65
2018-07-25T19:11:11.497Z,28.42
2018-07-25T19:14:47.818Z,28.04
2018-07-25T19:17:21.870Z,28.36
2018-07-25T19:19:56.858Z,28.76
2018-07-25T19:22:30.602Z,28.91
2018-07-25T19:25:03.110Z,29.16
2018-07-25T19:27:35.553Z,28.89
2018-07-25T19:30:08.451Z,28.35
2018-07-25T19:32:40.600Z,28.30
2018-07-25T19:35:12.942Z,28.02
2018-07-25T19:37:46.929Z,27.76
2018-07-25T19:40:19.276Z,27.60
2018-07-25T19:42:53.650Z,27.76
2018-07-25T19:45:26.469Z,28.39
2018-07-25T19:47:59.660Z,28.45
2018-07-25T19:50:32.740Z,28.39
2018-07-25T19:53:06.576Z,28.59
2018-07-25T19:55:39.310Z,28.34
2018-07-25T19:58:11.979Z,28.48
2018-07-25T20:00:46.802Z,28.33
2018-07-25T20:03:20.517Z,28.36
2018-07-25T20:05:53.192Z,28.40
2018-07-25T20:08:26.410Z,28.14
2018-07-25T20:11:00.761Z,27.89
2018-07-25T20:13:33.604Z,27.72
2018-07-25T20:16:06.752Z,27.89
2018-07-25T20:18:42.593Z,27.74
2018-07-25T20:21:15.052Z,27.69
2018-07-25T20:23:48.594Z,27.77
2018-07-25T20:29:09.450Z,27.56
2018-07-25T20:34:33.477Z,27.22
2018-07-25T20:37:22.729Z,26.74
2018-07-25T20:42:56.625Z,27.49
2018-07-25T20:45:36.609Z,27.33
2018-07-25T20:48:15.068Z,27.23
2018-07-25T20:50:51.012Z,27.36
2018-07-25T20:53:31.950Z,27.74
2018-07-25T20:56:07.129Z,27.65
2018-07-25T20:58:48.524Z,27.49
2018-07-25T21:01:27.725Z,27.87
2018-07-25T21:04:11.333Z,27.76
2018-07-25T21:09:51.644Z,27.13
2018-07-25T21:12:47.854Z,26.96
2018-07-25T21:15:34.885Z,26.72
2018-07-25T21:18:14.014Z,26.12
2018-07-25T21:20:52.149Z,25.72
2018-07-25T21:23:31.722Z,25.71
2018-07-25T21:26:15.406Z,25.76
2018-07-25T21:29:04.301Z,25.70
2018-07-25T21:34:30.575Z,25.60
2018-07-25T21:37:12.259Z,25.54
2018-07-25T21:39:47.622Z,25.63
2018-07-25T21:42:29.696Z,25.46
2018-07-25T21:50:45.413Z,25.48
2018-07-25T21:53:37.086Z,25.70
2018-07-25T21:56:19.962Z,25.81
2018-07-25T21:59:04.223Z,25.61
2018-07-25T22:04:33.124Z,25.49
2018-07-25T22:07:22.226Z,25.43
2018-07-25T22:13:04.392Z,25.11
2018-07-25T22:15:43.970Z,24.94
2018-07-25T22:18:29.216Z,24.84
2018-07-25T22:21:09.092Z,24.89
2018-07-25T22:26:26.744Z,24.78
2018-07-25T22:29:12.242Z,24.83
2018-07-25T22:43:52.752Z,25.01
2018-07-25T22:46:27.910Z,25.14
2018-07-25T22:49:09.087Z,24.88
2018-07-25T22:51:44.652Z,25.09
2018-07-25T22:54:18.912Z,24.85
2018-07-25T22:57:04.252Z,24.46
2018-07-25T23:02:24.243Z,24.44
2018-07-25T23:05:00.803Z,24.31
2018-07-25T23:07:43.719Z,24.21
2018-07-25T23:10:26.222Z,24.16
2018-07-25T23:15:55.928Z,24.38
2018-07-25T23:18:32.292Z,24.42
2018-07-25T23:21:19.344Z,24.58
2018-07-25T23:23:55.802Z,24.72
2018-07-25T23:26:42.305Z,24.75
2018-07-25T23:29:21.903Z,24.81
2018-07-25T23:31:59.729Z,24.90
2018-07-25T23:34:46.553Z,24.81
2018-07-25T23:49:10.520Z,24.56
2018-07-25T23:51:50.992Z,24.81
2018-07-25T23:54:26.128Z,24.95
2018-07-25T23:57:01.281Z,25.11
2018-07-25T23:59:40.062Z,24.53
